Time;durP1;ratioP1;P1;durP2;ratioP2;P2;SDS_P1;SDS_P2;PMS_P1;PMS_P2;Temp;Humidity;BMP_temperature;BMP_pressure;BME280_temperature;BME280_humidity;BME280_pressure;Samples;Min_cycle;Max_cycle;Signal;HPM_P1;HPM_P2
2024/01/06 00:01:52;;;;;;;46.92;26.30;;;;;;;;;;5073236;28;20548;-60
2024/01/06 00:04:19;;;;;;;46.08;27.23;;;;;;;;;;5073258;28;20280;-60
2024/01/06 00:06:48;;;;;;;48.50;29.40;;;;;;;;;;5073539;28;20284;-60
2024/01/06 00:09:15;;;;;;;52.70;29.60;;;;;;;;;;5073455;28;20189;-60
2024/01/06 00:11:42;;;;;;;51.03;29.05;;;;;;;;;;5073259;28;20308;-60
2024/01/06 00:14:08;;;;;;;46.83;27.60;;;;;;;;;;5073292;28;20240;-60
2024/01/06 00:16:36;;;;;;;45.13;26.15;;;;;;;;;;5073175;28;20280;-60
2024/01/06 00:19:03;;;;;;;48.15;28.48;;;;;;;;;;5073135;28;20224;-60
2024/01/06 00:21:30;;;;;;;43.63;27.65;;;;;;;;;;5073209;28;20192;-60
2024/01/06 00:23:58;;;;;;;45.75;27.00;;;;;;;;;;5073241;28;20276;-60
2024/01/06 00:26:25;;;;;;;46.35;26.85;;;;;;;;;;5073202;28;20224;-60
2024/01/06 00:28:52;;;;;;;45.60;27.02;;;;;;;;;;5073240;28;20275;-60
2024/01/06 00:31:19;;;;;;;46.92;27.33;;;;;;;;;;5072859;28;20602;-60
2024/01/06 00:33:46;;;;;;;50.33;27.42;;;;;;;;;;5073155;28;20591;-60
2024/01/06 00:36:13;;;;;;;37.45;23.80;;;;;;;;;;5073018;28;20594;-60
2024/01/06 00:38:40;;;;;;;42.97;27.05;;;;;;;;;;5072971;28;20277;-60
2024/01/06 00:41:08;;;;;;;46.75;26.73;;;;;;;;;;5072905;28;20280;-60
2024/01/06 00:43:35;;;;;;;43.33;25.98;;;;;;;;;;5072752;28;20280;-60
2024/01/06 00:46:02;;;;;;;42.17;27.20;;;;;;;;;;5072620;28;20276;-60
2024/01/06 00:48:29;;;;;;;42.47;25.75;;;;;;;;;;5072908;28;20193;-61
2024/01/06 00:50:56;;;;;;;48.85;27.00;;;;;;;;;;5073125;28;20307;-60
2024/01/06 00:53:23;;;;;;;37.97;25.02;;;;;;;;;;5072857;28;20281;-60
2024/01/06 00:55:50;;;;;;;42.50;24.98;;;;;;;;;;5072797;28;20275;-60
2024/01/06 00:58:18;;;;;;;42.83;25.65;;;;;;;;;;5072732;28;20283;-60
2024/01/06 01:00:45;;;;;;;37.08;23.65;;;;;;;;;;5072583;28;20280;-60
2024/01/06 01:03:12;;;;;;;42.45;26.42;;;;;;;;;;5072578;28;20195;-60
2024/01/06 01:05:39;;;;;;;39.17;24.35;;;;;;;;;;5072593;28;20721;-60
2024/01/06 01:08:06;;;;;;;36.60;24.13;;;;;;;;;;5072749;28;20185;-60
2024/01/06 01:10:33;;;;;;;35.22;23.60;;;;;;;;;;5072433;28;20709;-60
2024/01/06 01:13:00;;;;;;;39.30;21.83;;;;;;;;;;5072536;28;20280;-60
2024/01/06 01:15:29;;;;;;;38.90;24.83;;;;;;;;;;5075226;28;20224;-60
2024/01/06 01:17:55;;;;;;;37.47;22.13;;;;;;;;;;5076858;28;20195;-60
2024/01/06 01:20:22;;;;;;;43.75;25.00;;;;;;;;;;5076516;28;20200;-60
2024/01/06 01:22:49;;;;;;;39.75;24.05;;;;;;;;;;5076446;28;20318;-60
2024/01/06 01:25:16;;;;;;;39.15;22.73;;;;;;;;;;5076354;28;20193;-60
2024/01/06 01:27:43;;;;;;;37.00;23.38;;;;;;;;;;5076150;28;20199;-60
2024/01/06 01:30:11;;;;;;;37.05;23.73;;;;;;;;;;5076295;28;20280;-61
2024/01/06 01:32:39;;;;;;;35.10;22.67;;;;;;;;;;5076325;28;20245;-61
2024/01/06 01:35:07;;;;;;;44.60;24.48;;;;;;;;;;5076272;28;20556;-61
2024/01/06 01:37:33;;;;;;;39.20;23.92;;;;;;;;;;5076027;28;20276;-61
2024/01/06 01:40:00;;;;;;;36.17;23.25;;;;;;;;;;5076170;28;20724;-61
2024/01/06 01:42:28;;;;;;;39.90;25.38;;;;;;;;;;5075926;28;20276;-60
2024/01/06 01:44:54;;;;;;;43.22;24.40;;;;;;;;;;5076066;28;20189;-60
2024/01/06 01:47:21;;;;;;;38.55;22.88;;;;;;;;;;5076012;28;20247;-60
2024/01/06 01:49:50;;;;;;;33.33;22.23;;;;;;;;;;5075921;28;20619;-60
2024/01/06 01:52:17;;;;;;;38.53;22.15;;;;;;;;;;5075769;28;20580;-60
2024/01/06 01:54:44;;;;;;;32.78;21.25;;;;;;;;;;5075645;28;20651;-60
2024/01/06 01:57:12;;;;;;;37.35;22.85;;;;;;;;;;5075909;28;20224;-60
2024/01/06 01:59:39;;;;;;;36.22;22.40;;;;;;;;;;5075940;28;20287;-60
2024/01/06 02:02:05;;;;;;;36.55;22.45;;;;;;;;;;5075766;28;20620;-61
2024/01/06 02:04:33;;;;;;;37.90;22.48;;;;;;;;;;5075586;28;20196;-60
2024/01/06 02:07:01;;;;;;;39.97;22.48;;;;;;;;;;5075478;28;20597;-60
2024/01/06 02:09:29;;;;;;;37.85;22.45;;;;;;;;;;5075448;28;20280;-60
2024/01/06 02:11:56;;;;;;;37.22;22.23;;;;;;;;;;5075590;28;20584;-60
2024/01/06 02:14:23;;;;;;;36.08;23.40;;;;;;;;;;5075531;28;20190;-60
2024/01/06 02:16:50;;;;;;;35.10;22.52;;;;;;;;;;5075449;28;20280;-60
2024/01/06 02:19:17;;;;;;;37.30;22.70;;;;;;;;;;5075335;28;20557;-60
2024/01/06 02:21:45;;;;;;;36.75;23.15;;;;;;;;;;5075488;28;20200;-60
2024/01/06 02:24:13;;;;;;;41.22;22.88;;;;;;;;;;5075391;28;20428;-60
2024/01/06 02:26:40;;;;;;;36.17;21.50;;;;;;;;;;5075312;28;20625;-60
2024/01/06 02:29:07;;;;;;;32.97;22.50;;;;;;;;;;5075481;28;20189;-60
2024/01/06 02:31:34;;;;;;;30.52;21.00;;;;;;;;;;5075053;28;20335;-60
2024/01/06 02:34:01;;;;;;;35.22;23.00;;;;;;;;;;5075123;28;20189;-60
2024/01/06 02:36:28;;;;;;;36.72;22.85;;;;;;;;;;5074893;28;20292;-60
2024/01/06 02:38:55;;;;;;;38.70;22.13;;;;;;;;;;5075108;28;20700;-60
2024/01/06 02:41:23;;;;;;;43.97;25.35;;;;;;;;;;5075007;28;20276;-60
2024/01/06 02:43:50;;;;;;;36.47;22.48;;;;;;;;;;5074931;28;20209;-60
2024/01/06 02:46:17;;;;;;;37.40;23.45;;;;;;;;;;5074874;28;20201;-60
2024/01/06 02:48:44;;;;;;;34.28;20.98;;;;;;;;;;5074629;28;20193;-60
2024/01/06 02:51:12;;;;;;;36.10;21.92;;;;;;;;;;5074547;28;20216;-60
2024/01/06 02:53:39;;;;;;;35.35;21.80;;;;;;;;;;5074673;28;20192;-60
2024/01/06 02:56:10;;;;;;;34.03;22.13;;;;;;;;;;5074739;28;20189;-60
2024/01/06 02:58:39;;;;;;;36.58;22.90;;;;;;;;;;5074719;28;20276;-60
2024/01/06 03:01:06;;;;;;;38.42;23.52;;;;;;;;;;5074547;28;20276;-60
2024/01/06 03:03:33;;;;;;;37.08;22.23;;;;;;;;;;5074460;28;20197;-60
2024/01/06 03:06:00;;;;;;;39.90;24.55;;;;;;;;;;5074614;28;20304;-60
2024/01/06 03:08:27;;;;;;;38.45;23.98;;;;;;;;;;5074558;28;20596;-60
2024/01/06 03:10:54;;;;;;;39.85;23.83;;;;;;;;;;5074586;28;20217;-60
2024/01/06 03:13:21;;;;;;;38.53;22.92;;;;;;;;;;5074240;28;20276;-60
2024/01/06 03:15:49;;;;;;;41.50;22.17;;;;;;;;;;5074246;28;20189;-60
2024/01/06 03:18:16;;;;;;;40.25;24.20;;;;;;;;;;5074362;28;20288;-60
2024/01/06 03:20:43;;;;;;;35.85;22.80;;;;;;;;;;5074304;28;20625;-60
2024/01/06 03:23:10;;;;;;;36.25;22.17;;;;;;;;;;5074391;28;20284;-60
2024/01/06 03:25:37;;;;;;;33.95;21.67;;;;;;;;;;5074132;28;20215;-60
2024/01/06 03:28:04;;;;;;;40.22;22.42;;;;;;;;;;5073989;28;20283;-60
2024/01/06 03:30:31;;;;;;;34.67;22.58;;;;;;;;;;5073747;28;20660;-60
2024/01/06 03:32:59;;;;;;;38.00;23.30;;;;;;;;;;5074236;28;20219;-60
2024/01/06 03:35:26;;;;;;;41.22;22.65;;;;;;;;;;5073946;28;20185;-60
2024/01/06 03:37:53;;;;;;;42.15;23.55;;;;;;;;;;5073384;28;20626;-62
2024/01/06 03:40:20;;;;;;;35.03;23.23;;;;;;;;;;5073879;28;20621;-60
2024/01/06 03:42:47;;;;;;;40.65;23.48;;;;;;;;;;5073762;28;20653;-60
2024/01/06 03:45:14;;;;;;;35.70;22.65;;;;;;;;;;5073595;28;20193;-60
2024/01/06 03:47:41;;;;;;;38.47;23.02;;;;;;;;;;5073774;28;20193;-60
2024/01/06 03:50:10;;;;;;;41.55;22.25;;;;;;;;;;5073732;28;20189;-60
2024/01/06 03:52:37;;;;;;;35.80;22.45;;;;;;;;;;5073589;28;20326;-60
2024/01/06 03:55:04;;;;;;;45.60;24.20;;;;;;;;;;5073534;28;20256;-60
2024/01/06 03:57:31;;;;;;;36.05;21.50;;;;;;;;;;5073340;28;20280;-60
2024/01/06 03:59:58;;;;;;;38.15;22.90;;;;;;;;;;5073654;28;20275;-60
2024/01/06 04:02:25;;;;;;;38.67;22.80;;;;;;;;;;5073474;28;20276;-60
2024/01/06 04:04:52;;;;;;;40.55;21.88;;;;;;;;;;5073385;28;20296;-60
2024/01/06 04:07:21;;;;;;;41.35;22.52;;;;;;;;;;5073360;28;20272;-60
2024/01/06 04:09:47;;;;;;;44.50;24.13;;;;;;;;;;5073363;28;20599;-60
2024/01/06 04:12:14;;;;;;;42.95;23.30;;;;;;;;;;5073338;28;20221;-60
2024/01/06 04:14:41;;;;;;;40.25;23.20;;;;;;;;;;5073574;28;20276;-60
2024/01/06 04:17:08;;;;;;;37.28;22.52;;;;;;;;;;5073255;28;20228;-60
2024/01/06 04:19:35;;;;;;;39.00;21.63;;;;;;;;;;5073038;28;20259;-60
2024/01/06 04:22:02;;;;;;;41.63;23.00;;;;;;;;;;5073107;28;20189;-60
2024/01/06 04:24:30;;;;;;;39.03;21.70;;;;;;;;;;5073048;28;20276;-60
2024/01/06 04:26:57;;;;;;;42.42;24.50;;;;;;;;;;5072928;28;20185;-60
2024/01/06 04:29:24;;;;;;;40.63;23.05;;;;;;;;;;5073082;28;20276;-60
2024/01/06 04:31:51;;;;;;;39.45;23.85;;;;;;;;;;5072989;28;20225;-60
2024/01/06 04:34:18;;;;;;;46.97;25.13;;;;;;;;;;5072983;28;20200;-60
2024/01/06 04:36:45;;;;;;;42.97;24.40;;;;;;;;;;5072939;28;20189;-60
2024/01/06 04:39:13;;;;;;;38.15;22.67;;;;;;;;;;5072810;28;20244;-60
2024/01/06 04:41:41;;;;;;;47.97;25.00;;;;;;;;;;5072822;28;20185;-60
2024/01/06 04:44:08;;;;;;;38.28;23.17;;;;;;;;;;5072991;28;20691;-60
2024/01/06 04:46:35;;;;;;;40.47;21.77;;;;;;;;;;5072889;28;20275;-60
2024/01/06 04:49:02;;;;;;;39.28;23.17;;;;;;;;;;5073006;28;20185;-60
2024/01/06 04:51:29;;;;;;;41.80;22.48;;;;;;;;;;5076850;28;20297;-60
2024/01/06 04:53:56;;;;;;;39.78;23.98;;;;;;;;;;5076684;28;20236;-60
2024/01/06 04:56:23;;;;;;;45.65;24.83;;;;;;;;;;5077098;28;20193;-60
2024/01/06 04:58:52;;;;;;;40.47;24.20;;;;;;;;;;5076926;28;20196;-60
2024/01/06 05:01:19;;;;;;;40.83;23.15;;;;;;;;;;5076883;28;20716;-60
2024/01/06 05:03:45;;;;;;;43.88;23.67;;;;;;;;;;5076803;28;20641;-60
2024/01/06 05:06:12;;;;;;;43.83;26.50;;;;;;;;;;5076645;28;20653;-60
2024/01/06 05:08:44;;;;;;;47.53;23.85;;;;;;;;;;5076615;28;20627;-60
2024/01/06 05:11:11;;;;;;;47.50;25.73;;;;;;;;;;5076735;28;20193;-60
2024/01/06 05:13:38;;;;;;;44.08;23.73;;;;;;;;;;5076633;28;20196;-60
2024/01/06 05:16:07;;;;;;;40.05;21.90;;;;;;;;;;5076819;28;20276;-60
2024/01/06 05:18:34;;;;;;;44.47;25.08;;;;;;;;;;5076425;28;20276;-60
2024/01/06 05:21:01;;;;;;;45.45;24.70;;;;;;;;;;5076208;28;20713;-60
2024/01/06 05:23:27;;;;;;;41.63;25.67;;;;;;;;;;5076534;28;20629;-60
2024/01/06 05:25:54;;;;;;;44.05;26.55;;;;;;;;;;5076490;28;20285;-60
2024/01/06 05:28:21;;;;;;;46.22;25.27;;;;;;;;;;5076315;28;20189;-60
2024/01/06 05:30:48;;;;;;;42.75;25.17;;;;;;;;;;5076259;28;20276;-60
2024/01/06 05:33:18;;;;;;;48.40;25.85;;;;;;;;;;5075984;28;20710;-60
2024/01/06 05:35:44;;;;;;;47.58;26.20;;;;;;;;;;5076076;28;20243;-60
2024/01/06 05:38:11;;;;;;;48.92;25.45;;;;;;;;;;5076246;28;20627;-60
2024/01/06 05:40:38;;;;;;;49.17;26.20;;;;;;;;;;5076237;28;20249;-60
2024/01/06 05:43:05;;;;;;;48.17;26.20;;;;;;;;;;5076086;28;20193;-60
2024/01/06 05:45:33;;;;;;;44.65;26.65;;;;;;;;;;5075975;28;20247;-61
2024/01/06 05:48:00;;;;;;;51.22;27.52;;;;;;;;;;5075887;28;20619;-59
2024/01/06 05:50:28;;;;;;;48.97;27.13;;;;;;;;;;5076052;28;20189;-59
2024/01/06 05:52:55;;;;;;;53.15;27.35;;;;;;;;;;5075887;28;20217;-58
2024/01/06 05:55:22;;;;;;;48.03;27.20;;;;;;;;;;5075870;28;20224;-61
2024/01/06 05:57:49;;;;;;;47.85;25.45;;;;;;;;;;5075881;28;20185;-59
2024/01/06 06:00:17;;;;;;;54.05;28.38;;;;;;;;;;5075242;28;20288;-59
2024/01/06 06:02:43;;;;;;;48.60;26.58;;;;;;;;;;5075496;28;20280;-59
2024/01/06 06:05:10;;;;;;;47.13;25.83;;;;;;;;;;5075793;28;20284;-60
2024/01/06 06:07:39;;;;;;;58.53;28.42;;;;;;;;;;5075657;28;20571;-59
2024/01/06 06:10:07;;;;;;;52.55;28.70;;;;;;;;;;5075601;28;20185;-59
2024/01/06 06:12:34;;;;;;;53.78;28.20;;;;;;;;;;5075400;28;20615;-59
2024/01/06 06:15:01;;;;;;;49.10;25.75;;;;;;;;;;5075373;28;20620;-59
2024/01/06 06:17:28;;;;;;;66.82;26.90;;;;;;;;;;5075655;28;20185;-58
2024/01/06 06:19:56;;;;;;;48.20;26.58;;;;;;;;;;5075430;28;20280;-58
2024/01/06 06:22:23;;;;;;;48.92;27.40;;;;;;;;;;5075366;28;20276;-59
2024/01/06 06:24:52;;;;;;;45.70;25.75;;;;;;;;;;5075310;28;20200;-59
2024/01/06 06:27:19;;;;;;;50.00;27.70;;;;;;;;;;5075234;28;20645;-59
2024/01/06 06:29:46;;;;;;;54.22;26.38;;;;;;;;;;5075090;28;20232;-59
2024/01/06 06:32:13;;;;;;;50.92;24.95;;;;;;;;;;5075256;28;20255;-59
2024/01/06 06:34:40;;;;;;;47.05;23.83;;;;;;;;;;5075195;28;20191;-59
2024/01/06 06:37:07;;;;;;;54.70;26.02;;;;;;;;;;5075065;28;20613;-59
2024/01/06 06:39:35;;;;;;;47.03;26.00;;;;;;;;;;5074889;28;20663;-60
2024/01/06 06:42:03;;;;;;;57.30;27.27;;;;;;;;;;5074923;28;20205;-59
2024/01/06 06:44:30;;;;;;;58.28;24.88;;;;;;;;;;5074765;28;20197;-59
2024/01/06 06:46:57;;;;;;;45.53;23.48;;;;;;;;;;5074959;28;20296;-59
2024/01/06 06:49:24;;;;;;;48.28;26.70;;;;;;;;;;5074929;28;20280;-59
2024/01/06 06:51:51;;;;;;;52.55;25.50;;;;;;;;;;5074699;28;20185;-59
2024/01/06 06:54:18;;;;;;;51.13;26.45;;;;;;;;;;5074778;28;20678;-59
2024/01/06 06:56:45;;;;;;;46.78;24.40;;;;;;;;;;5074588;28;20623;-59
2024/01/06 06:59:14;;;;;;;46.15;24.90;;;;;;;;;;5074829;28;20189;-59
2024/01/06 07:01:41;;;;;;;48.45;27.30;;;;;;;;;;5074568;28;20645;-59
2024/01/06 07:04:08;;;;;;;52.05;26.92;;;;;;;;;;5074597;28;20281;-59
2024/01/06 07:06:35;;;;;;;43.53;24.50;;;;;;;;;;5074507;28;20618;-60
2024/01/06 07:09:03;;;;;;;47.05;25.15;;;;;;;;;;5074372;28;20623;-59
2024/01/06 07:11:30;;;;;;;47.72;24.92;;;;;;;;;;5073968;28;20224;-60
2024/01/06 07:13:56;;;;;;;56.90;25.17;;;;;;;;;;5073813;28;20217;-59
2024/01/06 07:16:25;;;;;;;48.35;23.42;;;;;;;;;;5074303;28;20656;-58
2024/01/06 07:18:52;;;;;;;49.63;24.90;;;;;;;;;;5074240;28;20280;-60
2024/01/06 07:21:19;;;;;;;51.45;25.92;;;;;;;;;;5074125;28;20276;-59
2024/01/06 07:23:46;;;;;;;47.78;24.33;;;;;;;;;;5073964;28;20308;-59
2024/01/06 07:26:13;;;;;;;46.00;24.23;;;;;;;;;;5074203;28;20189;-59
2024/01/06 07:28:39;;;;;;;49.60;24.60;;;;;;;;;;5074074;28;20185;-59
2024/01/06 07:31:06;;;;;;;45.65;24.70;;;;;;;;;;5074022;28;20664;-59
2024/01/06 07:33:35;;;;;;;52.25;26.52;;;;;;;;;;5073822;28;20221;-59
2024/01/06 07:36:02;;;;;;;51.22;24.45;;;;;;;;;;5073859;28;20280;-59
2024/01/06 07:38:30;;;;;;;49.97;24.45;;;;;;;;;;5073704;28;20219;-59
2024/01/06 07:40:57;;;;;;;47.17;23.58;;;;;;;;;;5073879;28;20226;-59
2024/01/06 07:43:24;;;;;;;46.28;22.88;;;;;;;;;;5073738;28;20276;-59
2024/01/06 07:45:51;;;;;;;49.03;23.58;;;;;;;;;;5074031;28;20239;-59
2024/01/06 07:48:18;;;;;;;46.28;23.55;;;;;;;;;;5073621;28;20185;-59
2024/01/06 07:50:46;;;;;;;50.38;25.83;;;;;;;;;;5073411;28;20196;-59
2024/01/06 07:53:14;;;;;;;54.65;25.60;;;;;;;;;;5073372;28;20213;-59
2024/01/06 07:55:41;;;;;;;50.83;23.77;;;;;;;;;;5073475;28;20216;-60
2024/01/06 07:58:07;;;;;;;54.50;23.48;;;;;;;;;;5073366;28;20683;-59
2024/01/06 08:00:35;;;;;;;51.22;25.90;;;;;;;;;;5073397;28;20185;-59
2024/01/06 08:03:05;;;;;;;46.45;25.70;;;;;;;;;;5073364;28;20649;-59
2024/01/06 08:05:32;;;;;;;45.05;24.27;;;;;;;;;;5073177;28;20189;-59
2024/01/06 08:08:01;;;;;;;63.70;26.70;;;;;;;;;;5073468;28;20219;-59
2024/01/06 08:10:28;;;;;;;58.38;25.55;;;;;;;;;;5073318;28;20217;-59
2024/01/06 08:12:54;;;;;;;47.38;24.20;;;;;;;;;;5073063;28;20216;-59
2024/01/06 08:15:21;;;;;;;51.20;25.00;;;;;;;;;;5073277;28;20247;-59
2024/01/06 08:17:48;;;;;;;51.78;26.90;;;;;;;;;;5073108;28;20276;-59
2024/01/06 08:20:15;;;;;;;53.85;25.50;;;;;;;;;;5072954;28;20229;-59
2024/01/06 08:22:42;;;;;;;59.30;26.45;;;;;;;;;;5073204;28;20264;-59
2024/01/06 08:25:11;;;;;;;52.10;25.90;;;;;;;;;;5073097;28;20319;-59
2024/01/06 08:27:37;;;;;;;50.25;23.85;;;;;;;;;;5073165;28;20185;-59
2024/01/06 08:30:06;;;;;;;48.67;24.70;;;;;;;;;;5073005;28;20197;-59
2024/01/06 08:32:33;;;;;;;50.88;25.80;;;;;;;;;;5072841;28;20212;-59
2024/01/06 08:34:59;;;;;;;49.55;25.40;;;;;;;;;;5073204;28;20227;-59
2024/01/06 08:37:26;;;;;;;49.50;26.42;;;;;;;;;;5073066;28;20199;-59
2024/01/06 08:39:53;;;;;;;58.78;25.02;;;;;;;;;;5073028;28;20199;-59
2024/01/06 08:42:23;;;;;;;46.60;24.13;;;;;;;;;;5072914;28;20217;-59
2024/01/06 08:44:50;;;;;;;44.50;23.30;;;;;;;;;;5072811;28;20185;-59
2024/01/06 08:47:17;;;;;;;51.42;26.40;;;;;;;;;;5072683;28;20189;-59
2024/01/06 08:49:44;;;;;;;48.53;24.17;;;;;;;;;;5072930;28;20295;-59
2024/01/06 08:52:11;;;;;;;48.05;24.73;;;;;;;;;;5072866;28;20556;-59
2024/01/06 08:54:37;;;;;;;52.88;24.80;;;;;;;;;;5072485;28;20220;-59
2024/01/06 08:57:05;;;;;;;54.85;24.02;;;;;;;;;;5072722;28;20199;-59
2024/01/06 08:59:33;;;;;;;50.03;24.08;;;;;;;;;;5072551;28;20189;-59
2024/01/06 09:02:01;;;;;;;47.95;23.42;;;;;;;;;;5072612;28;20266;-59
2024/01/06 09:04:28;;;;;;;49.95;23.92;;;;;;;;;;5072686;28;20189;-59
2024/01/06 09:06:54;;;;;;;52.28;25.02;;;;;;;;;;5072735;28;20657;-59
2024/01/06 09:09:21;;;;;;;47.78;24.00;;;;;;;;;;5072598;28;20189;-59
2024/01/06 09:11:49;;;;;;;49.45;24.85;;;;;;;;;;5072597;28;20675;-60
2024/01/06 09:14:18;;;;;;;50.85;25.70;;;;;;;;;;5072378;28;20217;-59
2024/01/06 09:16:46;;;;;;;42.88;22.77;;;;;;;;;;5072517;28;20196;-60
2024/01/06 09:19:13;;;;;;;48.80;25.17;;;;;;;;;;5072670;28;20276;-60
2024/01/06 09:21:40;;;;;;;52.17;27.00;;;;;;;;;;5072813;28;20276;-60
2024/01/06 09:24:07;;;;;;;54.70;24.05;;;;;;;;;;5072484;28;20292;-60
2024/01/06 09:26:34;;;;;;;48.67;23.63;;;;;;;;;;5072361;28;20244;-60
2024/01/06 09:29:01;;;;;;;50.67;24.75;;;;;;;;;;5072386;28;20190;-61
2024/01/06 09:31:28;;;;;;;44.78;23.15;;;;;;;;;;5072519;28;20186;-60
2024/01/06 09:33:57;;;;;;;48.90;23.75;;;;;;;;;;5072370;28;20688;-60
2024/01/06 09:36:23;;;;;;;47.30;25.10;;;;;;;;;;5074796;28;20276;-60
2024/01/06 09:38:50;;;;;;;45.00;24.98;;;;;;;;;;5076103;28;20189;-61
2024/01/06 09:41:17;;;;;;;51.88;26.38;;;;;;;;;;5075987;28;20560;-61
2024/01/06 09:43:44;;;;;;;51.33;25.77;;;;;;;;;;5075862;28;20197;-61
2024/01/06 09:46:12;;;;;;;50.38;24.48;;;;;;;;;;5076068;28;20190;-61
2024/01/06 09:48:41;;;;;;;52.78;25.23;;;;;;;;;;5076064;28;20591;-60
2024/01/06 09:51:11;;;;;;;44.47;23.52;;;;;;;;;;5075868;28;20193;-60
2024/01/06 09:53:43;;;;;;;50.63;26.42;;;;;;;;;;5075468;28;20683;-61
2024/01/06 09:56:10;;;;;;;54.75;26.55;;;;;;;;;;5075641;28;20189;-60
2024/01/06 09:58:38;;;;;;;54.50;26.30;;;;;;;;;;5075635;28;20659;-60
2024/01/06 10:01:06;;;;;;;59.88;27.42;;;;;;;;;;5075725;28;20189;-61
2024/01/06 10:03:34;;;;;;;54.25;29.02;;;;;;;;;;5075728;28;20555;-61
2024/01/06 10:06:03;;;;;;;50.13;25.65;;;;;;;;;;5075614;28;20196;-61
2024/01/06 10:08:32;;;;;;;52.28;25.25;;;;;;;;;;5075406;28;20194;-61
2024/01/06 10:10:59;;;;;;;50.40;26.00;;;;;;;;;;5075674;28;20217;-60
2024/01/06 10:13:28;;;;;;;50.20;25.95;;;;;;;;;;5075447;28;20244;-60
2024/01/06 10:15:55;;;;;;;49.67;27.05;;;;;;;;;;5075485;28;20197;-61
2024/01/06 10:18:22;;;;;;;45.00;25.50;;;;;;;;;;5075441;28;20668;-60
2024/01/06 10:20:49;;;;;;;49.05;24.27;;;;;;;;;;5075357;28;20247;-61
2024/01/06 10:23:16;;;;;;;53.05;24.90;;;;;;;;;;5075581;28;20205;-61
2024/01/06 10:25:44;;;;;;;45.78;26.15;;;;;;;;;;5075378;28;20736;-60
2024/01/06 10:28:13;;;;;;;45.78;24.40;;;;;;;;;;5075300;28;20191;-60
2024/01/06 10:30:40;;;;;;;42.92;24.77;;;;;;;;;;5075185;28;20609;-60
2024/01/06 10:33:09;;;;;;;47.33;26.08;;;;;;;;;;5074937;28;20695;-60
2024/01/06 10:35:37;;;;;;;46.35;24.35;;;;;;;;;;5074954;28;20193;-61
2024/01/06 10:38:04;;;;;;;44.70;25.60;;;;;;;;;;5075134;28;20189;-61
2024/01/06 10:40:31;;;;;;;46.15;23.95;;;;;;;;;;5075031;28;20272;-61
2024/01/06 10:42:59;;;;;;;43.70;24.00;;;;;;;;;;5074938;28;20276;-61
2024/01/06 10:45:26;;;;;;;47.53;25.85;;;;;;;;;;5074812;28;20319;-61
2024/01/06 10:47:55;;;;;;;37.28;22.35;;;;;;;;;;5073498;28;20192;-61
2024/01/06 10:50:22;;;;;;;42.60;24.33;;;;;;;;;;5074720;28;20201;-60
2024/01/06 10:52:49;;;;;;;45.70;24.63;;;;;;;;;;5074887;28;20276;-61
2024/01/06 10:55:17;;;;;;;46.28;25.35;;;;;;;;;;5074406;28;20232;-60
2024/01/06 10:57:45;;;;;;;41.83;23.88;;;;;;;;;;5074609;28;20568;-61
2024/01/06 11:00:14;;;;;;;43.75;25.25;;;;;;;;;;5074572;28;20192;-60
2024/01/06 11:02:41;;;;;;;44.45;23.63;;;;;;;;;;5074364;28;20276;-61
2024/01/06 11:05:10;;;;;;;38.63;23.20;;;;;;;;;;5074559;28;20197;-60
2024/01/06 11:07:38;;;;;;;41.83;23.35;;;;;;;;;;5074472;28;20214;-60
2024/01/06 11:10:06;;;;;;;48.38;24.58;;;;;;;;;;5074473;28;20276;-61
2024/01/06 11:12:33;;;;;;;36.92;24.25;;;;;;;;;;5074339;28;20276;-60
2024/01/06 11:15:00;;;;;;;46.05;25.40;;;;;;;;;;5074155;28;20307;-61
2024/01/06 11:17:46;;;;;;;40.70;24.83;;;;;;;;;;5074165;28;20196;-61
2024/01/06 11:20:14;;;;;;;44.45;25.33;;;;;;;;;;5074304;28;20193;-60
2024/01/06 11:22:41;;;;;;;37.97;22.10;;;;;;;;;;5074174;28;20281;-60
2024/01/06 11:25:10;;;;;;;40.90;25.55;;;;;;;;;;5073975;28;20284;-60
2024/01/06 11:27:37;;;;;;;41.42;24.98;;;;;;;;;;5073957;28;20289;-60
2024/01/06 11:30:06;;;;;;;42.05;22.83;;;;;;;;;;5074181;28;20529;-60
2024/01/06 11:32:35;;;;;;;38.50;22.85;;;;;;;;;;5073779;28;20455;-60
2024/01/06 11:35:08;;;;;;;41.25;23.60;;;;;;;;;;5073878;28;20267;-61
2024/01/06 11:37:54;;;;;;;43.47;24.90;;;;;;;;;;5073777;28;20534;-60
2024/01/06 11:40:25;;;;;;;41.38;24.00;;;;;;;;;;5073977;28;20264;-61
2024/01/06 11:42:58;;;;;;;40.72;23.70;;;;;;;;;;5073871;28;20263;-60
2024/01/06 11:45:25;;;;;;;33.90;22.52;;;;;;;;;;5073765;28;20207;-61
2024/01/06 11:47:55;;;;;;;35.42;23.25;;;;;;;;;;5073628;28;20557;-60
2024/01/06 11:50:23;;;;;;;35.03;21.70;;;;;;;;;;5073473;28;20186;-60
2024/01/06 11:52:51;;;;;;;35.97;23.05;;;;;;;;;;5073403;28;20186;-61
2024/01/06 11:55:19;;;;;;;34.90;22.00;;;;;;;;;;5073205;28;20323;-60
2024/01/06 11:57:47;;;;;;;38.85;23.10;;;;;;;;;;5073271;28;20466;-60
2024/01/06 12:00:15;;;;;;;41.22;23.80;;;;;;;;;;5073296;28;20192;-61
2024/01/06 12:02:42;;;;;;;34.53;22.40;;;;;;;;;;5073449;28;20195;-60
2024/01/06 12:05:14;;;;;;;39.60;25.50;;;;;;;;;;5073146;28;20189;-61
2024/01/06 12:07:41;;;;;;;39.17;23.05;;;;;;;;;;5073406;28;20189;-60
2024/01/06 12:10:11;;;;;;;38.80;22.95;;;;;;;;;;5073335;28;20237;-61
2024/01/06 12:12:37;;;;;;;35.90;21.83;;;;;;;;;;5073295;28;20189;-61
2024/01/06 12:15:05;;;;;;;36.00;21.67;;;;;;;;;;5073125;28;20625;-60
2024/01/06 12:17:32;;;;;;;40.88;24.83;;;;;;;;;;5073154;28;20284;-61
2024/01/06 12:19:59;;;;;;;38.03;22.58;;;;;;;;;;5073201;28;20282;-60
2024/01/06 12:22:27;;;;;;;43.17;24.35;;;;;;;;;;5073239;28;20197;-61
2024/01/06 12:24:54;;;;;;;41.85;23.45;;;;;;;;;;5073019;28;20193;-60
2024/01/06 12:27:22;;;;;;;37.15;23.45;;;;;;;;;;5073104;28;20197;-60
2024/01/06 12:29:50;;;;;;;34.03;21.58;;;;;;;;;;5073023;28;20189;-61
2024/01/06 12:32:17;;;;;;;35.33;21.52;;;;;;;;;;5072922;28;20266;-61
2024/01/06 12:34:43;;;;;;;45.15;24.95;;;;;;;;;;5072952;28;20588;-60
2024/01/06 12:37:10;;;;;;;38.13;22.90;;;;;;;;;;5072820;28;20189;-60
2024/01/06 12:39:37;;;;;;;40.45;24.00;;;;;;;;;;5072907;28;20193;-61
2024/01/06 12:42:05;;;;;;;45.70;25.38;;;;;;;;;;5072855;28;20193;-60
2024/01/06 12:44:36;;;;;;;45.95;23.95;;;;;;;;;;5072883;28;20276;-60
2024/01/06 12:47:03;;;;;;;45.50;27.23;;;;;;;;;;5072658;28;20645;-60
2024/01/06 12:49:30;;;;;;;41.88;23.83;;;;;;;;;;5072927;28;20247;-60
2024/01/06 12:51:57;;;;;;;42.45;24.85;;;;;;;;;;5072786;28;20193;-60
2024/01/06 12:54:24;;;;;;;36.33;23.13;;;;;;;;;;5072377;28;20710;-60
2024/01/06 12:56:51;;;;;;;38.20;22.77;;;;;;;;;;5072744;28;20276;-60
2024/01/06 12:59:18;;;;;;;36.80;22.90;;;;;;;;;;5072540;28;20193;-61
2024/01/06 13:01:47;;;;;;;37.35;24.15;;;;;;;;;;5072861;28;20284;-61
2024/01/06 13:04:14;;;;;;;37.75;23.40;;;;;;;;;;5072647;28;20189;-61
2024/01/06 13:06:41;;;;;;;28.52;20.20;;;;;;;;;;5072781;28;20302;-61
2024/01/06 13:09:08;;;;;;;41.17;21.60;;;;;;;;;;5072686;28;20193;-61
2024/01/06 13:11:36;;;;;;;41.88;24.10;;;;;;;;;;5075469;28;20186;-61
2024/01/06 13:14:03;;;;;;;36.63;22.20;;;;;;;;;;5076409;28;20217;-61
2024/01/06 13:16:30;;;;;;;34.33;21.92;;;;;;;;;;5076614;28;20272;-61
2024/01/06 13:18:59;;;;;;;37.75;22.70;;;;;;;;;;5076428;28;20682;-60
2024/01/06 13:21:26;;;;;;;36.10;21.92;;;;;;;;;;5076454;28;20279;-61
2024/01/06 13:23:53;;;;;;;36.38;22.15;;;;;;;;;;5076451;28;20272;-60
2024/01/06 13:26:20;;;;;;;34.90;21.88;;;;;;;;;;5076080;28;20667;-60
2024/01/06 13:28:47;;;;;;;38.85;21.58;;;;;;;;;;5076449;28;20276;-61
2024/01/06 13:31:13;;;;;;;37.30;20.55;;;;;;;;;;5076368;28;20276;-60
2024/01/06 13:33:41;;;;;;;31.95;21.10;;;;;;;;;;5076285;28;20193;-60
2024/01/06 13:36:09;;;;;;;31.65;20.80;;;;;;;;;;5076021;28;20216;-61
2024/01/06 13:38:36;;;;;;;28.83;18.20;;;;;;;;;;5076147;28;20272;-60
2024/01/06 13:41:03;;;;;;;34.70;20.13;;;;;;;;;;5075905;28;20185;-60
2024/01/06 13:43:31;;;;;;;37.15;20.92;;;;;;;;;;5076223;28;20186;-61
2024/01/06 13:45:58;;;;;;;34.22;22.45;;;;;;;;;;5075970;28;20280;-61
2024/01/06 13:48:25;;;;;;;31.77;19.65;;;;;;;;;;5075958;28;20673;-61
2024/01/06 13:50:52;;;;;;;32.45;19.65;;;;;;;;;;5075868;28;20284;-61
2024/01/06 13:53:21;;;;;;;30.98;19.13;;;;;;;;;;5075820;28;20279;-61
2024/01/06 13:55:47;;;;;;;35.45;20.10;;;;;;;;;;5075868;28;20247;-60
2024/01/06 13:58:14;;;;;;;34.85;20.95;;;;;;;;;;5075920;28;20215;-61
2024/01/06 14:00:41;;;;;;;34.25;21.45;;;;;;;;;;5075758;28;20189;-61
2024/01/06 14:03:08;;;;;;;35.70;21.17;;;;;;;;;;5075678;28;20272;-60
2024/01/06 14:05:35;;;;;;;33.65;20.88;;;;;;;;;;5075664;28;20280;-61
2024/01/06 14:08:02;;;;;;;36.40;21.13;;;;;;;;;;5075474;28;20189;-60
2024/01/06 14:10:31;;;;;;;34.55;21.40;;;;;;;;;;5075670;28;20220;-60
2024/01/06 14:12:58;;;;;;;31.33;19.27;;;;;;;;;;5075662;28;20200;-60
2024/01/06 14:15:26;;;;;;;33.33;20.92;;;;;;;;;;5075485;28;20221;-61
2024/01/06 14:17:53;;;;;;;34.72;19.63;;;;;;;;;;5075538;28;20549;-60